Have a Safe July 4th! 

Flight Track Log - Related Links

Times and Time Zones

All times are in EDT time to prevent confusion due to time zone crossing. See the SWA862 flight status page for this flight to view local times or setup timezone preferences in your user account.

Time Position Orientation Groundspeed Altitude Reporting Facility
EDT Latitude Longitude Course Direction KTS MPH feet Rate Location/Type
Fri 08:22:33 PM 35.9372 -78.7397 28° Northeast 210 242 4,600  Level Washington Center
Fri 08:23:33 PM 35.9950 -78.6908 34° Northeast 276 318 7,200 3,404 Climbing Washington Center
Fri 08:24:17 PM 36.0397 -78.6489 37° Northeast 288 331 10,500 3,692 Climbing Washington Center
Fri 08:25:17 PM 36.1106 -78.5794 38° Northeast 307 353 13,600 3,350 Climbing Washington Center
Fri 08:26:17 PM 36.1833 -78.5050 40° Northeast 322 371 17,200 3,250 Climbing Washington Center
Fri 08:27:17 PM 36.2558 -78.4356 38° Northeast 339 390 20,100 2,850 Climbing Washington Center
Fri 08:28:17 PM 36.3369 -78.3561 38° Northeast 361 415 22,900 1,450 Climbing Washington Center
Fri 08:29:17 PM 36.4181 -78.2814 37° Northeast 361 415 23,000 50 Climbing Washington Center
Fri 08:30:17 PM 36.5011 -78.2042 37° Northeast 361 415 23,000  Level Washington Center
Fri 08:31:17 PM 36.5919 -78.1453 27° Northeast 367 422 23,000  Level Washington Center
Fri 08:32:17 PM 36.6869 -78.0939 23° Northeast 367 422 23,000  Level Washington Center
Fri 08:33:17 PM 36.7800 -78.0425 24° Northeast 362 417 23,000  Level Washington Center
Fri 08:34:17 PM 36.8747 -77.9911 23° Northeast 362 417 23,000  Level Washington Center
Fri 08:35:17 PM 36.9678 -77.9367 25° Northeast 362 417 23,000  Level Washington Center
Fri 08:36:17 PM 37.0647 -77.8850 23° Northeast 362 417 23,000  Level Washington Center
Fri 08:37:17 PM 37.1594 -77.8306 25° Northeast 362 417 23,000 -400 Level Washington Center
Fri 08:38:17 PM 37.2544 -77.7783 24° Northeast 362 417 22,200 -950 Descending Washington Center
Fri 08:39:17 PM 37.3492 -77.7264 24° Northeast 362 417 21,100 -600 Descending Washington Center
Fri 08:40:17 PM 37.4397 -77.6739 25° Northeast 362 417 21,000 -50 Descending Washington Center
Fri 08:41:17 PM 37.5344 -77.6214 24° Northeast 362 417 21,000  Level Washington Center
Fri 08:42:17 PM 37.6336 -77.5664 24° Northeast 368 423 21,000  Level Washington Center
Fri 08:43:17 PM 37.7325 -77.5086 25° Northeast 373 429 21,000  Level Washington Center
Fri 08:44:17 PM 37.8314 -77.4533 24° Northeast 378 435 21,000 -350 Level Washington Center
Fri 08:45:17 PM 37.9283 -77.3950 25° Northeast 378 435 20,300 -850 Descending Washington Center
Fri 08:46:17 PM 38.0292 -77.3394 23° Northeast 378 435 19,300 -1,000 Descending Washington Center
Fri 08:47:17 PM 38.1281 -77.2839 24° Northeast 378 435 18,300 -1,050 Descending Washington Center
Fri 08:48:17 PM 38.2247 -77.2278 25° Northeast 378 435 17,200 -1,100 Descending Washington Center
Fri 08:49:17 PM 38.3150 -77.1769 24° Northeast 371 427 16,100 -1,100 Descending Washington Center
Fri 08:50:17 PM 38.4011 -77.1283 24° Northeast 349 402 15,000 -1,400 Descending Washington Center
Fri 08:51:17 PM 38.4850 -77.0981 16° North 322 371 13,300 -1,750 Descending Washington Center
Fri 08:52:17 PM 38.5567 -77.0333 35° Northeast 308 354 11,500 -1,800 Descending Washington Center
Fri 08:53:17 PM 38.6017 -76.9306 61° Northeast 301 346 9,700 -1,350 Descending Washington Center
Fri 08:54:17 PM 38.6464 -76.8436 57° Northeast 301 346 8,800 -1,000 Descending Washington Center
Fri 08:55:17 PM 38.6889 -76.7619 56° Northeast 288 331 7,700 -1,050 Descending Washington Center
Fri 08:56:17 PM 38.7292 -76.6775 59° Northeast 276 318 6,700 -953 Descending Washington Center
Fri 08:57:04 PM 38.7667 -76.6000 58° Northeast 272 313 6,000 -505 Descending Potomac TRACON
Fri 08:58:04 PM 38.8167 -76.5333 46° Northeast 269 310 5,800 -632 Descending Potomac TRACON
Fri 08:58:58 PM 38.8667 -76.5333 360° North 240 276 4,800 -895 Descending Potomac TRACON
Fri 08:59:58 PM 38.9333 -76.5500 349° North 217 250 4,100 -800 Descending Potomac TRACON
Fri 09:00:58 PM 39.0000 -76.5833 339° North 225 259 3,200 -650 Descending Potomac TRACON
Fri 09:01:58 PM 39.0500 -76.6000 345° North 201 231 2,800 -600 Descending Potomac TRACON
Fri 09:02:58 PM 39.0833 -76.6000 360° North 126 145 2,000 -750 Descending Potomac TRACON
Fri 09:03:58 PM 39.1167 -76.6167 339° North 110 127 1,300 -650 Descending Potomac TRACON
Fri 09:04:58 PM 39.1333 -76.6333 322° Northwest 112 129 700 -600 Descending Potomac TRACON
Fri 09:06:00 PM 39.1667 -76.6667 339° North  Level FlightAware Approximate
Fri 09:13:00 PM 39.1754 -76.6683 339° North  Level Estimated
Fri 09:14:00 PM 39.1754 -76.6683 339° North  Level Estimated
Fri 09:15:00 PM 39.1754 -76.6683 339° North  Level Estimated
Fri 09:16:00 PM 39.1754 -76.6683 339° North  Level Estimated

Login

Don't have an account? Register now (free) for customized features, flight alerts, and more!